Time;durP1;ratioP1;P1;durP2;ratioP2;P2;SDS_P1;SDS_P2;PMS_P1;PMS_P2;Temp;Humidity;BMP_temperature;BMP_pressure;BME280_temperature;BME280_humidity;BME280_pressure;Samples;Min_cycle;Max_cycle;Signal;HPM_P1;HPM_P2
2022/07/06 00:01:24;;;;;;;6.50;1.65;;;15.00;99.90;;;;;;5044640;28;20099;-43
2022/07/06 00:03:50;;;;;;;5.72;1.40;;;15.10;99.90;;;;;;5044908;28;20040;-43
2022/07/06 00:06:16;;;;;;;3.40;1.38;;;15.10;99.90;;;;;;5042263;28;20408;-43
2022/07/06 00:08:43;;;;;;;5.13;1.55;;;15.20;99.90;;;;;;5033550;28;20049;-43
2022/07/06 00:11:09;;;;;;;3.75;1.20;;;15.20;99.90;;;;;;5043597;28;20055;-45
2022/07/06 00:13:35;;;;;;;5.93;1.55;;;15.20;99.90;;;;;;5043719;28;20091;-43
2022/07/06 00:16:01;;;;;;;5.93;1.55;;;15.20;99.90;;;;;;5044772;28;20463;-42
2022/07/06 00:18:26;;;;;;;3.40;1.10;;;15.10;99.90;;;;;;5043759;28;20072;-44
2022/07/06 00:20:52;;;;;;;6.50;1.75;;;15.20;99.90;;;;;;5043745;28;20049;-43
2022/07/06 00:23:18;;;;;;;4.53;1.27;;;15.20;99.90;;;;;;5043916;28;20504;-43
2022/07/06 00:25:44;;;;;;;4.28;1.48;;;15.10;99.90;;;;;;5043822;28;20048;-43
2022/07/06 00:28:11;;;;;;;6.05;2.00;;;15.10;99.90;;;;;;5043514;28;20470;-43
2022/07/06 00:30:36;;;;;;;4.28;1.20;;;15.10;99.90;;;;;;5044390;28;20096;-44
2022/07/06 00:33:02;;;;;;;5.75;1.88;;;15.10;99.90;;;;;;5044839;28;20190;-43
2022/07/06 00:35:28;;;;;;;3.20;1.30;;;15.10;99.90;;;;;;5044870;28;20103;-44
2022/07/06 00:37:54;;;;;;;3.65;1.20;;;15.00;99.90;;;;;;5023355;28;20129;-43
2022/07/06 00:40:20;;;;;;;6.28;1.27;;;15.00;99.90;;;;;;5044793;28;20055;-43
2022/07/06 00:42:47;;;;;;;7.18;1.52;;;15.00;99.90;;;;;;5043918;28;20053;-48
2022/07/06 00:45:15;;;;;;;4.90;1.63;;;15.00;99.90;;;;;;5043522;28;20053;-45
2022/07/06 00:47:41;;;;;;;5.68;1.60;;;15.00;99.90;;;;;;5043817;28;20423;-45
2022/07/06 00:50:15;;;;;;;6.05;1.33;;;15.00;99.90;;;;;;5040958;28;20049;-45
2022/07/06 00:52:48;;;;;;;2.88;1.40;;;14.90;99.90;;;;;;5042885;28;20484;-46
2022/07/06 00:55:15;;;;;;;8.32;2.03;;;14.90;99.90;;;;;;5043606;28;20045;-47
2022/07/06 00:57:42;;;;;;;4.97;1.20;;;14.90;99.90;;;;;;5043176;28;20195;-42
2022/07/06 01:00:12;;;;;;;7.07;1.48;;;14.90;99.90;;;;;;5042449;28;20575;-43
2022/07/06 01:02:39;;;;;;;6.70;2.17;;;14.90;99.90;;;;;;5043010;28;20442;-44
2022/07/06 01:05:07;;;;;;;5.65;1.60;;;14.90;99.90;;;;;;5042718;28;20041;-42
2022/07/06 01:07:34;;;;;;;5.00;1.27;;;14.90;99.90;;;;;;5024943;28;20088;-44
2022/07/06 01:10:01;;;;;;;3.17;1.40;;;14.90;99.90;;;;;;5042825;28;20560;-43
2022/07/06 01:12:27;;;;;;;7.13;1.35;;;14.90;99.90;;;;;;5043213;28;20053;-44
2022/07/06 01:14:53;;;;;;;5.70;1.45;;;14.90;99.90;;;;;;5042860;28;20090;-45
2022/07/06 01:17:19;;;;;;;3.80;1.08;;;14.90;99.90;;;;;;5043636;28;20102;-44
2022/07/06 01:19:44;;;;;;;3.58;1.23;;;14.90;99.90;;;;;;5042217;28;20048;-43
2022/07/06 01:22:10;;;;;;;6.43;1.40;;;14.90;99.90;;;;;;5041846;28;20049;-42
2022/07/06 01:24:36;;;;;;;4.63;1.10;;;15.00;99.90;;;;;;5042587;28;20049;-45
2022/07/06 01:27:04;;;;;;;6.60;1.20;;;15.00;99.90;;;;;;5041620;28;20128;-43
2022/07/06 01:29:31;;;;;;;4.85;1.10;;;14.90;99.90;;;;;;5042129;28;20315;-42
2022/07/06 01:31:56;;;;;;;5.00;1.20;;;15.00;99.90;;;;;;5041177;28;20136;-43
2022/07/06 01:34:22;;;;;;;4.93;2.20;;;15.00;99.90;;;;;;5043064;28;20052;-45
2022/07/06 01:36:48;;;;;;;6.28;1.70;;;15.00;99.90;;;;;;5042717;28;20429;-45
2022/07/06 01:39:14;;;;;;;7.50;1.67;;;14.90;99.90;;;;;;5041609;28;20151;-43
2022/07/06 01:41:40;;;;;;;6.47;1.60;;;14.90;99.90;;;;;;5042224;28;20048;-43
2022/07/06 01:44:06;;;;;;;5.25;1.15;;;14.90;99.90;;;;;;5042396;28;20438;-42
2022/07/06 01:46:32;;;;;;;5.35;1.20;;;14.90;99.90;;;;;;5040713;28;20045;-45
2022/07/06 01:48:58;;;;;;;1.88;0.93;;;14.90;99.90;;;;;;5040898;28;20135;-43
2022/07/06 01:51:24;;;;;;;4.82;1.75;;;14.90;99.90;;;;;;5040239;28;20099;-43
2022/07/06 01:53:50;;;;;;;5.40;1.92;;;14.90;99.90;;;;;;5042507;28;20129;-43
2022/07/06 01:56:17;;;;;;;6.70;1.10;;;14.90;99.90;;;;;;5046188;28;20064;-44
2022/07/06 01:58:43;;;;;;;7.38;1.52;;;14.90;99.90;;;;;;5041184;28;20203;-44
2022/07/06 02:01:15;;;;;;;4.53;1.33;;;14.90;99.90;;;;;;5042243;28;20606;-46
2022/07/06 02:03:41;;;;;;;4.47;1.27;;;14.90;99.90;;;;;;5042613;28;20045;-47
2022/07/06 02:06:07;;;;;;;2.35;0.80;;;14.90;99.90;;;;;;5041284;28;20088;-44
2022/07/06 02:08:34;;;;;;;6.45;1.33;;;15.00;99.90;;;;;;5031637;28;20304;-44
2022/07/06 02:11:00;;;;;;;5.50;1.17;;;15.00;99.90;;;;;;5042244;28;20059;-43
2022/07/06 02:13:26;;;;;;;5.20;1.42;;;15.00;99.90;;;;;;5041485;28;20045;-43
2022/07/06 02:15:51;;;;;;;3.33;1.10;;;15.00;99.90;;;;;;5041367;28;20124;-44
2022/07/06 02:18:20;;;;;;;5.53;1.35;;;15.00;99.90;;;;;;5041507;28;20049;-43
2022/07/06 02:20:46;;;;;;;3.58;0.90;;;15.10;99.90;;;;;;5041401;28;20368;-43
2022/07/06 02:23:12;;;;;;;4.20;0.90;;;15.00;99.90;;;;;;5041804;28;20068;-47
2022/07/06 02:25:38;;;;;;;3.40;1.15;;;15.00;99.90;;;;;;5041739;28;20490;-45
2022/07/06 02:28:04;;;;;;;7.93;1.30;;;15.00;99.90;;;;;;5042223;28;20407;-44
2022/07/06 02:30:30;;;;;;;6.20;1.55;;;15.00;99.90;;;;;;5041917;28;20049;-44
2022/07/06 02:32:56;;;;;;;5.40;1.40;;;15.00;99.90;;;;;;5019896;28;20060;-44
2022/07/06 02:35:21;;;;;;;4.63;1.52;;;15.00;99.90;;;;;;5037467;28;20049;-44
2022/07/06 02:37:47;;;;;;;4.60;1.00;;;15.00;99.90;;;;;;5041126;28;20090;-44
2022/07/06 02:40:13;;;;;;;5.63;1.30;;;15.00;99.90;;;;;;5042139;28;20057;-45
2022/07/06 02:42:39;;;;;;;4.57;1.10;;;15.00;99.90;;;;;;5041568;28;20084;-45
2022/07/06 02:45:05;;;;;;;7.15;1.45;;;15.00;99.90;;;;;;5041245;28;20401;-43
2022/07/06 02:47:32;;;;;;;6.47;1.20;;;15.00;99.90;;;;;;5040753;28;20063;-43
2022/07/06 02:49:57;;;;;;;6.05;1.20;;;15.00;99.90;;;;;;5039413;28;20132;-44
2022/07/06 02:52:23;;;;;;;3.78;0.98;;;14.90;99.90;;;;;;5039497;28;20385;-44
2022/07/06 02:54:49;;;;;;;3.65;1.10;;;14.90;99.90;;;;;;5041882;28;20049;-43
2022/07/06 02:57:16;;;;;;;5.07;1.35;;;14.90;99.90;;;;;;5031085;28;20041;-43
2022/07/06 02:59:41;;;;;;;3.75;1.30;;;14.90;99.90;;;;;;5039738;28;20455;-43
2022/07/06 03:05:18;;;;;;;7.60;2.03;;;14.80;99.90;;;;;;5406165;23;20592;-44
2022/07/06 03:07:44;;;;;;;3.38;1.17;;;14.80;99.90;;;;;;4975386;28;20144;-44
2022/07/06 03:10:09;;;;;;;4.18;1.35;;;14.80;99.90;;;;;;4996406;28;20049;-43
2022/07/06 03:12:35;;;;;;;8.93;2.00;;;14.80;99.90;;;;;;5006791;28;20388;-44
2022/07/06 03:15:01;;;;;;;3.92;1.52;;;14.80;99.90;;;;;;5015338;28;20050;-43
2022/07/06 03:17:27;;;;;;;4.63;1.50;;;14.70;99.90;;;;;;4992857;28;20053;-44
2022/07/06 03:19:52;;;;;;;8.20;1.63;;;14.70;99.90;;;;;;5005844;28;20081;-44
2022/07/06 03:22:18;;;;;;;5.60;1.15;;;14.70;99.90;;;;;;5012482;28;20045;-42
2022/07/06 03:24:44;;;;;;;3.85;1.40;;;14.70;99.90;;;;;;5011868;28;20049;-44
2022/07/06 03:27:10;;;;;;;4.00;1.20;;;14.70;99.90;;;;;;5017337;28;20046;-44
2022/07/06 03:29:35;;;;;;;6.00;2.38;;;14.70;99.90;;;;;;5006151;28;20050;-42
2022/07/06 03:32:01;;;;;;;8.15;1.73;;;14.60;99.90;;;;;;4994877;28;20053;-42
2022/07/06 03:34:28;;;;;;;3.22;1.30;;;14.60;99.90;;;;;;5011233;28;20037;-43
2022/07/06 03:36:53;;;;;;;6.18;1.40;;;14.60;99.90;;;;;;4990948;28;20045;-43
2022/07/06 03:39:19;;;;;;;4.88;1.52;;;14.60;99.90;;;;;;5013322;28;20462;-44
2022/07/06 03:41:45;;;;;;;6.82;1.48;;;14.60;99.90;;;;;;4992675;28;20057;-45
2022/07/06 03:44:10;;;;;;;4.95;1.33;;;14.60;99.90;;;;;;5009983;28;20128;-45
2022/07/06 03:46:36;;;;;;;4.05;1.27;;;14.60;99.90;;;;;;4999444;28;20053;-43
2022/07/06 03:49:02;;;;;;;3.35;1.40;;;14.70;99.90;;;;;;4995465;28;20601;-43
2022/07/06 03:51:28;;;;;;;5.63;1.42;;;14.60;99.90;;;;;;5001252;28;20042;-42
2022/07/06 03:53:54;;;;;;;5.25;1.40;;;14.60;99.90;;;;;;5003375;28;20111;-43
2022/07/06 03:56:28;;;;;;;5.65;1.67;;;14.60;99.90;;;;;;4986251;28;20056;-45
2022/07/06 03:59:02;;;;;;;8.98;1.75;;;14.70;99.90;;;;;;5001426;28;20516;-45
2022/07/06 04:01:29;;;;;;;7.57;2.03;;;14.80;99.90;;;;;;5001036;28;20938;-45
2022/07/06 04:03:56;;;;;;;3.85;1.30;;;15.20;99.90;;;;;;4981280;28;20053;-43
2022/07/06 04:06:22;;;;;;;4.72;1.48;;;16.00;99.90;;;;;;5009764;28;20055;-43
2022/07/06 04:08:48;;;;;;;5.25;1.60;;;16.90;99.90;;;;;;5009701;28;20042;-44
2022/07/06 04:11:14;;;;;;;3.65;1.17;;;17.80;99.90;;;;;;5011324;28;20164;-44
2022/07/06 04:13:40;;;;;;;5.88;1.65;;;18.60;99.90;;;;;;5007345;28;20045;-44
2022/07/06 04:16:07;;;;;;;5.53;1.30;;;19.30;99.90;;;;;;5010758;28;20038;-43
2022/07/06 04:18:33;;;;;;;7.70;1.42;;;20.10;99.90;;;;;;4993914;28;20062;-45
2022/07/06 04:20:59;;;;;;;3.67;1.27;;;20.70;99.90;;;;;;5016107;28;20073;-48
2022/07/06 04:23:25;;;;;;;5.78;1.33;;;21.20;99.90;;;;;;4990131;28;20053;-44
2022/07/06 04:25:51;;;;;;;7.55;1.40;;;21.80;99.90;;;;;;4996927;28;20137;-43
2022/07/06 04:28:16;;;;;;;5.50;1.20;;;22.30;99.70;;;;;;5017018;28;20456;-44
2022/07/06 04:30:42;;;;;;;4.95;1.10;;;22.40;98.90;;;;;;4976978;28;20050;-43
2022/07/06 04:33:08;;;;;;;5.70;1.30;;;22.00;98.40;;;;;;4990898;28;20049;-44
2022/07/06 04:35:34;;;;;;;4.63;1.20;;;21.40;98.30;;;;;;5007093;28;20038;-43
2022/07/06 04:38:00;;;;;;;6.18;1.33;;;20.70;98.60;;;;;;5006407;28;20048;-43
2022/07/06 04:40:26;;;;;;;3.53;1.40;;;20.10;99.00;;;;;;4988425;28;20523;-43
2022/07/06 04:42:52;;;;;;;4.25;1.10;;;20.00;99.90;;;;;;4993473;28;20396;-44
2022/07/06 04:45:18;;;;;;;4.47;1.40;;;21.00;99.80;;;;;;5013908;28;20034;-44
2022/07/06 04:47:44;;;;;;;4.47;1.38;;;22.20;98.80;;;;;;5004298;28;20045;-46
2022/07/06 04:50:10;;;;;;;5.18;1.20;;;22.20;97.20;;;;;;5018797;28;20057;-43
2022/07/06 04:52:35;;;;;;;4.20;1.13;;;21.30;97.20;;;;;;4986344;28;20211;-42
2022/07/06 04:55:01;;;;;;;4.25;1.58;;;20.40;97.80;;;;;;5017972;28;20439;-44
2022/07/06 04:57:29;;;;;;;5.47;1.50;;;19.60;98.70;;;;;;5017730;28;20568;-43
2022/07/06 04:59:55;;;;;;;3.40;1.25;;;19.00;99.40;;;;;;5016813;28;20624;-43
2022/07/06 05:02:21;;;;;;;6.90;1.42;;;18.40;99.90;;;;;;5020803;28;20049;-44
2022/07/06 05:04:46;;;;;;;4.50;1.38;;;18.00;99.90;;;;;;4995924;28;20053;-44
2022/07/06 05:07:13;;;;;;;5.57;1.20;;;17.60;99.90;;;;;;5016760;28;20083;-44
2022/07/06 05:09:38;;;;;;;4.63;1.33;;;17.30;99.90;;;;;;5008542;28;20103;-44
2022/07/06 05:12:04;;;;;;;6.80;1.30;;;17.00;99.90;;;;;;5013946;28;20148;-44
2022/07/06 05:14:30;;;;;;;5.65;1.10;;;16.80;99.90;;;;;;5009643;28;20484;-45
2022/07/06 05:16:56;;;;;;;5.85;1.20;;;16.60;99.90;;;;;;5018282;28;20045;-42
2022/07/06 05:19:21;;;;;;;5.45;1.45;;;16.50;99.90;;;;;;4998626;28;21532;-43
2022/07/06 05:21:47;;;;;;;3.45;1.23;;;16.40;99.90;;;;;;5021357;28;20463;-44
2022/07/06 05:24:13;;;;;;;5.97;1.63;;;16.30;99.90;;;;;;5018557;28;20504;-43
2022/07/06 05:26:39;;;;;;;5.07;1.25;;;16.20;99.90;;;;;;5019127;28;20064;-43
2022/07/06 05:29:04;;;;;;;6.03;1.55;;;16.20;99.90;;;;;;5018152;28;20041;-43
2022/07/06 05:31:30;;;;;;;3.20;1.00;;;16.10;99.90;;;;;;5013415;28;20049;-43
2022/07/06 05:33:56;;;;;;;5.85;1.23;;;16.10;99.90;;;;;;5013194;28;20215;-44
2022/07/06 05:36:25;;;;;;;5.32;1.17;;;16.00;99.90;;;;;;5003338;28;20081;-51
2022/07/06 05:38:51;;;;;;;4.75;1.52;;;16.00;99.90;;;;;;4992974;28;20053;-44
2022/07/06 05:41:16;;;;;;;4.95;1.10;;;16.00;99.90;;;;;;5018928;28;20064;-42
2022/07/06 05:43:42;;;;;;;8.38;1.63;;;16.00;99.90;;;;;;4998016;28;20103;-44
2022/07/06 05:46:08;;;;;;;5.75;1.80;;;15.90;99.90;;;;;;4985911;28;20057;-44
2022/07/06 05:51:18;;;;;;;6.72;1.45;;;15.90;99.90;;;;;;5008113;28;20049;-43
2022/07/06 05:53:44;;;;;;;4.25;1.20;;;15.90;99.90;;;;;;5011417;28;20068;-43
2022/07/06 05:56:10;;;;;;;2.88;1.08;;;15.90;99.90;;;;;;4987955;28;20140;-41
2022/07/06 05:58:36;;;;;;;3.13;0.93;;;15.90;99.90;;;;;;5013131;28;20053;-42
2022/07/06 06:01:01;;;;;;;5.03;1.23;;;15.90;99.90;;;;;;4994289;28;20145;-45
2022/07/06 06:03:27;;;;;;;2.63;1.10;;;16.00;99.90;;;;;;5011816;28;20042;-43
2022/07/06 06:05:53;;;;;;;4.22;1.05;;;16.10;99.90;;;;;;5007803;28;20782;-43
2022/07/06 06:08:19;;;;;;;6.25;1.20;;;16.20;99.90;;;;;;5011437;28;20061;-46
2022/07/06 06:10:44;;;;;;;10.93;1.70;;;16.30;99.90;;;;;;5011785;28;20488;-45
2022/07/06 06:13:10;;;;;;;3.92;1.00;;;16.50;99.90;;;;;;4995699;28;20064;-43
2022/07/06 06:15:36;;;;;;;6.65;1.20;;;16.60;99.90;;;;;;5011764;28;20444;-43
2022/07/06 06:18:03;;;;;;;3.63;1.10;;;16.70;99.90;;;;;;5002071;28;20169;-44
2022/07/06 06:20:29;;;;;;;3.45;1.00;;;16.80;99.90;;;;;;5002082;28;20112;-43
2022/07/06 06:22:57;;;;;;;3.50;0.90;;;16.80;99.90;;;;;;4993145;28;20045;-43
2022/07/06 06:25:34;;;;;;;5.78;1.50;;;16.80;99.90;;;;;;5010466;28;20520;-44
2022/07/06 06:28:01;;;;;;;5.75;1.40;;;16.90;99.90;;;;;;5006403;28;20507;-46
2022/07/06 06:30:27;;;;;;;5.78;0.90;;;16.90;99.90;;;;;;4990757;28;20054;-45
2022/07/06 06:33:14;;;;;;;4.60;1.48;;;17.00;99.90;;;;;;4994231;28;20053;-44
2022/07/06 06:35:53;;;;;;;4.55;0.93;;;17.20;99.90;;;;;;5007827;28;20045;-47
2022/07/06 06:38:21;;;;;;;6.15;1.33;;;17.50;99.90;;;;;;5007821;28;20164;-44
2022/07/06 06:40:47;;;;;;;5.57;1.00;;;17.80;99.90;;;;;;5004898;28;20056;-44
2022/07/06 06:43:16;;;;;;;3.22;0.93;;;18.50;99.90;;;;;;4993565;28;20062;-42
2022/07/06 06:45:41;;;;;;;2.60;0.80;;;19.90;99.90;;;;;;5013670;28;20067;-46
2022/07/06 06:48:07;;;;;;;3.13;0.90;;;21.20;99.90;;;;;;5013795;28;20451;-44
2022/07/06 06:50:33;;;;;;;3.38;1.27;;;21.90;99.60;;;;;;5011597;28;20111;-44
2022/07/06 06:52:59;;;;;;;2.38;1.00;;;22.60;97.90;;;;;;5009288;28;20073;-43
2022/07/06 06:55:25;;;;;;;5.18;1.10;;;23.30;97.30;;;;;;4983242;28;20053;-46
2022/07/06 06:57:51;;;;;;;6.25;1.20;;;23.90;95.10;;;;;;5011233;28;20053;-44
2022/07/06 07:00:16;;;;;;;3.70;1.20;;;24.70;94.70;;;;;;4983587;28;20468;-45
2022/07/06 07:02:43;;;;;;;3.88;1.08;;;25.20;94.10;;;;;;4992683;28;20056;-46
2022/07/06 07:05:08;;;;;;;3.78;1.00;;;25.70;93.60;;;;;;4993228;28;20056;-43
2022/07/06 07:07:34;;;;;;;4.55;1.98;;;26.10;92.80;;;;;;4982995;28;20050;-43
2022/07/06 07:10:03;;;;;;;3.55;1.05;;;26.60;92.50;;;;;;4993501;28;20125;-47
2022/07/06 07:12:28;;;;;;;3.92;1.02;;;26.90;91.70;;;;;;5010955;28;20041;-44
2022/07/06 07:14:54;;;;;;;5.68;1.42;;;27.00;91.30;;;;;;4983648;28;20107;-44
2022/07/06 07:17:20;;;;;;;6.07;1.23;;;26.90;90.70;;;;;;5013715;28;20405;-45
2022/07/06 07:19:46;;;;;;;3.15;1.02;;;26.10;90.50;;;;;;5013804;28;20042;-44
2022/07/06 07:22:11;;;;;;;4.78;1.17;;;25.50;90.60;;;;;;4983740;28;20447;-45
2022/07/06 07:24:37;;;;;;;3.67;1.17;;;25.50;90.60;;;;;;5016899;28;20045;-46
2022/07/06 07:27:05;;;;;;;2.55;1.02;;;25.50;89.80;;;;;;5019137;28;20061;-43
2022/07/06 07:29:31;;;;;;;4.03;1.08;;;25.40;90.30;;;;;;5000391;28;20388;-43
2022/07/06 07:31:56;;;;;;;3.42;0.90;;;25.20;90.50;;;;;;5019800;28;20045;-43
2022/07/06 07:34:22;;;;;;;4.80;1.23;;;24.90;90.80;;;;;;4997031;28;20480;-45
2022/07/06 07:36:48;;;;;;;5.22;1.15;;;25.10;91.10;;;;;;5004870;28;20049;-44
2022/07/06 07:39:14;;;;;;;4.05;1.17;;;25.10;91.30;;;;;;5014221;28;20492;-43
2022/07/06 07:41:39;;;;;;;3.60;0.82;;;25.00;91.10;;;;;;5001215;28;20049;-46
2022/07/06 07:44:05;;;;;;;3.97;1.10;;;24.70;90.80;;;;;;5001413;28;20064;-43
2022/07/06 07:46:31;;;;;;;5.00;1.00;;;24.20;90.00;;;;;;4991606;28;20549;-43
2022/07/06 07:48:57;;;;;;;2.58;0.82;;;23.80;90.30;;;;;;5002461;28;20394;-45
2022/07/06 07:51:23;;;;;;;3.47;1.30;;;23.20;90.60;;;;;;5002463;28;20176;-46
2022/07/06 07:53:48;;;;;;;2.35;0.95;;;22.80;90.70;;;;;;5003227;28;20100;-45
2022/07/06 07:56:14;;;;;;;2.42;0.90;;;22.50;91.20;;;;;;5011671;28;20037;-44
2022/07/06 07:58:40;;;;;;;3.70;0.98;;;22.50;91.30;;;;;;4984204;28;20046;-45
2022/07/06 08:01:06;;;;;;;3.22;1.08;;;22.70;91.80;;;;;;5003910;28;20124;-43
2022/07/06 08:03:31;;;;;;;4.65;1.45;;;23.10;91.60;;;;;;5018116;28;20045;-44
2022/07/06 08:05:58;;;;;;;2.92;0.70;;;23.40;91.20;;;;;;5018879;28;20523;-45
2022/07/06 08:08:24;;;;;;;3.05;0.82;;;23.60;90.80;;;;;;5004605;28;20064;-45
2022/07/06 08:10:50;;;;;;;2.90;0.90;;;23.70;91.10;;;;;;5008599;28;20141;-44
2022/07/06 08:13:15;;;;;;;3.08;1.10;;;24.00;91.30;;;;;;4997717;28;20122;-44
2022/07/06 08:15:42;;;;;;;3.97;0.88;;;24.20;91.20;;;;;;5010303;28;20570;-44
2022/07/06 08:18:09;;;;;;;3.15;1.10;;;24.00;91.20;;;;;;4990790;28;20512;-44
2022/07/06 08:20:35;;;;;;;2.17;1.20;;;23.80;91.20;;;;;;5006348;28;20054;-44
2022/07/06 08:23:01;;;;;;;4.57;1.10;;;23.80;90.80;;;;;;4999324;28;20862;-45
2022/07/06 08:25:27;;;;;;;2.15;0.90;;;23.60;91.00;;;;;;5016798;28;20049;-46
2022/07/06 08:27:53;;;;;;;1.65;0.82;;;23.30;91.00;;;;;;5018333;28;20107;-46
2022/07/06 08:30:19;;;;;;;2.55;0.80;;;22.80;90.80;;;;;;4992969;28;20136;-44
2022/07/06 08:32:44;;;;;;;3.42;0.80;;;22.40;90.70;;;;;;5009491;28;20542;-45
2022/07/06 08:35:10;;;;;;;4.38;0.90;;;22.30;91.10;;;;;;4986017;28;20054;-44
2022/07/06 08:37:36;;;;;;;2.80;0.90;;;22.30;91.70;;;;;;5007992;28;20534;-43
2022/07/06 08:40:03;;;;;;;4.82;1.25;;;22.40;92.00;;;;;;5012211;28;20079;-45
2022/07/06 08:42:32;;;;;;;3.05;0.90;;;22.40;91.80;;;;;;5000063;28;20552;-46
2022/07/06 08:45:03;;;;;;;3.50;1.15;;;22.50;91.80;;;;;;5018253;28;20494;-45
2022/07/06 08:47:30;;;;;;;3.00;1.00;;;22.60;91.40;;;;;;5005407;28;20076;-44
2022/07/06 08:49:57;;;;;;;3.08;1.00;;;22.70;91.40;;;;;;5015805;28;20076;-45
2022/07/06 08:52:23;;;;;;;2.92;1.13;;;23.00;91.50;;;;;;5022349;28;20057;-44
2022/07/06 08:54:49;;;;;;;2.20;1.27;;;23.20;91.40;;;;;;5023402;28;20076;-43
2022/07/06 08:57:15;;;;;;;3.05;0.85;;;23.20;91.40;;;;;;5023460;28;20045;-43
2022/07/06 08:59:41;;;;;;;4.30;1.13;;;23.10;91.90;;;;;;5023544;28;20108;-44
2022/07/06 09:02:09;;;;;;;3.00;0.90;;;22.70;92.40;;;;;;5023644;28;20401;-44
2022/07/06 09:04:36;;;;;;;4.70;1.13;;;22.40;92.70;;;;;;5022677;28;20042;-43
2022/07/06 09:07:03;;;;;;;2.45;0.90;;;22.10;92.60;;;;;;5005069;28;20425;-45
2022/07/06 09:09:32;;;;;;;2.78;1.10;;;22.00;93.00;;;;;;5023572;28;20107;-45
2022/07/06 09:11:58;;;;;;;3.38;1.20;;;21.90;93.00;;;;;;5005244;28;20456;-44
2022/07/06 09:14:24;;;;;;;3.05;0.98;;;21.90;92.90;;;;;;5022285;28;20068;-46
2022/07/06 09:17:05;;;;;;;5.07;0.90;;;21.70;92.70;;;;;;5005025;28;20191;-44
2022/07/06 09:19:32;;;;;;;3.05;1.00;;;22.00;93.50;;;;;;5023226;28;20042;-47
2022/07/06 09:21:58;;;;;;;2.83;0.77;;;22.10;92.60;;;;;;5023282;28;20053;-45
2022/07/06 09:24:26;;;;;;;3.40;1.00;;;22.30;92.40;;;;;;4988843;28;20150;-44
2022/07/06 09:26:55;;;;;;;4.82;1.00;;;22.20;92.40;;;;;;5023461;28;20057;-44
2022/07/06 09:29:33;;;;;;;5.07;1.17;;;22.10;92.10;;;;;;5021892;28;20053;-44
2022/07/06 09:32:00;;;;;;;5.45;1.45;;;22.00;92.40;;;;;;5012287;28;20511;-44
2022/07/06 09:34:44;;;;;;;2.92;0.95;;;21.80;92.40;;;;;;5008459;28;20053;-50
2022/07/06 09:37:10;;;;;;;4.97;1.23;;;21.60;92.50;;;;;;5008222;28;20899;-45
2022/07/06 09:39:36;;;;;;;3.60;1.00;;;21.50;92.60;;;;;;5010861;28;20049;-44
2022/07/06 09:42:04;;;;;;;4.63;1.20;;;21.50;92.40;;;;;;5008239;28;20049;-44
2022/07/06 09:44:37;;;;;;;3.55;1.10;;;21.70;92.90;;;;;;5019529;28;20045;-45
2022/07/06 09:47:05;;;;;;;4.28;1.20;;;22.10;92.40;;;;;;4997630;28;20674;-45
2022/07/06 09:49:32;;;;;;;6.22;1.13;;;22.30;92.50;;;;;;5003079;28;20266;-44
2022/07/06 09:51:59;;;;;;;2.42;0.95;;;22.40;92.80;;;;;;5006614;28;20089;-47
2022/07/06 09:54:25;;;;;;;3.13;0.98;;;22.30;92.70;;;;;;5013031;28;20041;-43
2022/07/06 09:56:53;;;;;;;3.20;1.23;;;22.20;93.20;;;;;;5010965;28;20092;-43
2022/07/06 09:59:28;;;;;;;5.15;1.00;;;22.10;93.30;;;;;;5011615;28;20049;-45
2022/07/06 10:01:56;;;;;;;6.47;1.40;;;22.00;93.30;;;;;;5020050;28;20474;-46
2022/07/06 10:04:23;;;;;;;4.10;1.20;;;22.00;93.30;;;;;;5008252;28;20156;-44
2022/07/06 10:06:49;;;;;;;3.60;1.05;;;22.00;93.20;;;;;;5001788;28;20481;-44
2022/07/06 10:09:17;;;;;;;4.75;0.90;;;22.00;92.90;;;;;;5005573;28;20527;-44
2022/07/06 10:11:54;;;;;;;4.32;1.10;;;22.10;93.80;;;;;;4996467;28;20226;-46
2022/07/06 10:14:25;;;;;;;3.60;0.75;;;22.30;93.10;;;;;;4989998;28;20547;-44
2022/07/06 10:16:51;;;;;;;4.93;1.35;;;22.50;93.00;;;;;;5002898;28;20281;-44
2022/07/06 10:19:19;;;;;;;3.15;1.00;;;22.50;92.20;;;;;;5011956;28;20042;-47
2022/07/06 10:21:47;;;;;;;4.07;0.80;;;22.60;92.00;;;;;;5012882;28;20053;-43
2022/07/06 10:24:14;;;;;;;4.18;0.90;;;22.80;92.30;;;;;;5006241;28;20056;-44
2022/07/06 10:26:41;;;;;;;2.20;0.80;;;22.70;92.80;;;;;;5007280;28;20514;-44
2022/07/06 10:29:09;;;;;;;2.70;0.90;;;22.40;91.80;;;;;;5008614;28;20057;-45
2022/07/06 10:31:43;;;;;;;3.05;0.90;;;22.40;91.90;;;;;;5012589;28;20463;-43
2022/07/06 10:34:12;;;;;;;2.60;0.95;;;22.60;93.20;;;;;;4989936;28;20069;-45
2022/07/06 10:36:40;;;;;;;3.47;1.33;;;22.50;91.60;;;;;;4995592;28;20136;-47
2022/07/06 10:41:52;;;;;;;4.10;0.98;;;22.70;92.50;;;;;;5007767;28;20069;-44
2022/07/06 10:44:23;;;;;;;2.33;1.00;;;22.80;92.30;;;;;;5002478;28;20108;-45
2022/07/06 10:46:54;;;;;;;3.63;1.00;;;22.70;92.10;;;;;;5006366;28;20571;-43
2022/07/06 10:49:21;;;;;;;3.13;0.90;;;22.70;92.30;;;;;;5007571;28;20100;-44
2022/07/06 10:51:49;;;;;;;4.43;0.70;;;22.70;92.90;;;;;;5017183;28;20056;-48
2022/07/06 10:54:17;;;;;;;4.32;0.80;;;22.90;92.70;;;;;;5017629;28;20045;-43
2022/07/06 10:56:45;;;;;;;4.90;0.88;;;23.10;93.40;;;;;;5014895;28;20045;-44
2022/07/06 10:59:15;;;;;;;3.22;0.70;;;23.30;92.90;;;;;;5005933;28;20104;-47
2022/07/06 11:02:13;;;;;;;3.63;1.00;;;23.40;91.30;;;;;;4993188;28;20056;-46
2022/07/06 11:04:40;;;;;;;3.92;0.98;;;23.20;91.80;;;;;;5008359;28;20061;-45
2022/07/06 11:07:10;;;;;;;3.33;1.10;;;23.20;91.90;;;;;;5007350;28;20224;-44
2022/07/06 11:09:38;;;;;;;1.48;0.73;;;23.00;90.70;;;;;;5008264;28;20123;-44
2022/07/06 11:12:18;;;;;;;4.22;0.95;;;23.00;91.30;;;;;;5006873;28;20143;-44
2022/07/06 11:14:48;;;;;;;3.15;0.70;;;23.20;91.90;;;;;;5014923;28;20076;-44
2022/07/06 11:17:15;;;;;;;1.85;0.88;;;23.30;92.20;;;;;;4994208;28;20132;-45
2022/07/06 11:19:55;;;;;;;4.32;0.98;;;23.30;91.80;;;;;;5008537;28;20151;-44
2022/07/06 11:22:20;;;;;;;3.17;0.88;;;23.40;92.30;;;;;;5000484;28;20542;-44
2022/07/06 11:24:47;;;;;;;3.80;0.80;;;23.50;92.20;;;;;;5006022;28;20132;-44
2022/07/06 11:27:14;;;;;;;4.35;1.00;;;23.70;92.20;;;;;;4991456;28;20053;-44
2022/07/06 11:29:40;;;;;;;1.77;0.90;;;23.70;91.40;;;;;;5008396;28;20385;-45
2022/07/06 11:32:09;;;;;;;2.53;1.00;;;23.70;90.80;;;;;;4989255;28;20642;-44
2022/07/06 11:34:38;;;;;;;3.22;1.00;;;23.70;91.40;;;;;;4987137;28;20150;-43
2022/07/06 11:37:10;;;;;;;2.72;1.00;;;23.40;91.30;;;;;;5009194;28;20420;-44
2022/07/06 11:39:43;;;;;;;3.38;1.10;;;23.20;92.10;;;;;;5006794;28;20049;-45
2022/07/06 11:42:10;;;;;;;2.00;0.95;;;23.40;92.50;;;;;;5006318;28;20073;-44
2022/07/06 11:44:37;;;;;;;3.92;1.10;;;23.40;92.10;;;;;;5013420;28;20133;-44
2022/07/06 11:47:04;;;;;;;2.95;0.90;;;23.20;92.10;;;;;;5001607;28;20448;-44
2022/07/06 11:49:31;;;;;;;9.40;1.83;;;23.20;91.60;;;;;;4971932;28;20049;-44
2022/07/06 11:51:57;;;;;;;2.55;0.70;;;23.40;92.40;;;;;;5016375;28;20049;-47
2022/07/06 11:54:24;;;;;;;2.28;0.70;;;23.50;91.70;;;;;;5010497;28;20048;-46
2022/07/06 11:57:01;;;;;;;1.92;0.70;;;23.40;91.60;;;;;;5007668;28;20053;-46
2022/07/06 11:59:27;;;;;;;2.88;1.25;;;23.20;91.40;;;;;;4989266;28;20479;-44
2022/07/06 12:02:04;;;;;;;2.90;1.33;;;23.20;92.00;;;;;;5022587;28;20725;-47
2022/07/06 12:04:31;;;;;;;2.75;0.90;;;23.30;91.60;;;;;;5024785;28;20403;-44
2022/07/06 12:07:05;;;;;;;4.35;1.00;;;23.40;92.10;;;;;;5024746;28;20061;-43
2022/07/06 12:09:33;;;;;;;3.75;1.00;;;23.40;91.50;;;;;;5006527;28;20053;-44
2022/07/06 12:12:02;;;;;;;5.20;1.17;;;23.30;92.20;;;;;;5024906;28;20128;-44
2022/07/06 12:14:27;;;;;;;3.10;1.00;;;23.40;92.60;;;;;;5024558;28;20412;-46
2022/07/06 12:16:53;;;;;;;1.73;0.80;;;23.40;92.20;;;;;;5025357;28;20053;-44
2022/07/06 12:19:22;;;;;;;2.88;0.93;;;23.40;91.70;;;;;;5026515;28;20053;-46
2022/07/06 12:21:50;;;;;;;3.47;1.00;;;23.30;90.90;;;;;;5027767;28;20124;-46
2022/07/06 12:24:24;;;;;;;2.92;1.02;;;23.30;91.00;;;;;;4989704;28;20057;-47
2022/07/06 12:26:52;;;;;;;5.03;1.10;;;23.60;92.20;;;;;;5009074;28;20601;-49
2022/07/06 12:29:18;;;;;;;3.30;0.90;;;23.80;92.30;;;;;;5004820;28;20133;-49
2022/07/06 12:31:48;;;;;;;3.55;0.95;;;23.80;90.60;;;;;;5004623;28;20411;-45
2022/07/06 12:34:22;;;;;;;1.88;0.90;;;23.80;90.50;;;;;;5003555;28;20760;-45
2022/07/06 12:36:53;;;;;;;2.55;1.10;;;24.00;91.70;;;;;;4970693;28;20061;-45
2022/07/06 12:39:24;;;;;;;3.67;1.10;;;24.00;92.10;;;;;;5005139;28;20060;-44
2022/07/06 12:42:12;;;;;;;2.20;1.08;;;24.00;90.90;;;;;;5004431;28;20045;-47
2022/07/06 12:44:46;;;;;;;4.53;1.02;;;23.80;90.20;;;;;;5003225;28;20054;-45
2022/07/06 12:47:16;;;;;;;2.03;0.90;;;23.60;90.40;;;;;;5003502;28;20042;-45
2022/07/06 12:49:42;;;;;;;3.92;1.00;;;23.50;90.00;;;;;;5003923;28;20133;-46
2022/07/06 12:52:15;;;;;;;2.28;1.00;;;23.30;90.30;;;;;;5017615;28;20054;-45
2022/07/06 12:54:49;;;;;;;3.15;0.80;;;23.30;91.40;;;;;;5011501;28;20089;-45
2022/07/06 12:57:19;;;;;;;2.35;1.15;;;23.30;90.80;;;;;;5017880;28;20373;-44